Magnate — H9ZN — position and weather

sailwx.info

Track history (hours):
 
Tides and Currents Weather Stations Pressure Air Temp Water Temp Dewpoint Dewpoint Depression Visibility Wind Speed Wind Dir Waves Ship Positions

Magnate

Last reported at 2017-Aug-19 01:30 UTC. Time now 2017-Aug-19 01:41 UTC.
Position N 34°45' W 007°31'.

Length 140 m; draft 7.1 m.

Type: Cargo ship. MMSI: 357055000.

Date/timePositionNaut miles runAvg speedWind from/ knotsBaromVisibWave heightAir tempDewpointWater temp
2017-Aug-19 01:30N 34°45' W 007°31'611.8
2017-Aug-19 01:00N 34°49' W 007°26'612.0
2017-Aug-19 00:30N 34°54' W 007°22'612.2
2017-Aug-19 00:00N 34°59' W 007°17'612.3
2017-Aug-18 23:30N 35°03' W 007°12'712.4
2017-Aug-18 22:56N 35°08' W 007°06'512.7
2017-Aug-18 22:30N 35°12' W 007°01'8111.2
2017-Aug-18 15:17N 35°58' W 005°39'3 9.3
2017-Aug-18 15:00N 35°58' W 005°36'9 9.2
2017-Aug-18 14:00N 36°01' W 005°25'611.8
2017-Aug-18 13:28N 36°07' W 005°23'1 0.7
2017-Aug-18 11:55N 36°08' W 005°22'0 0.0
2017-Aug-18 11:25N 36°08' W 005°22'0 0.0
2017-Aug-18 10:52N 36°08' W 005°22'218 7.7
2017-Aug-17 06:34N 37°14' W 001°03'212.4
2017-Aug-17 06:24N 37°15' W 001°01'612.4
2017-Aug-17 05:55N 37°19' W 000°55'512.4
2017-Aug-17 05:31N 37°22' W 000°50'612.3
2017-Aug-17 05:00N 37°26' W 000°44'612.1
2017-Aug-17 04:31N 37°30' W 000°39'612.1
2017-Aug-17 04:01N 37°34' W 000°33'611.9
2017-Aug-17 03:31N 37°39' W 000°29'612.1
2017-Aug-17 03:01N 37°44' W 000°25'612.6
2017-Aug-17 02:31N 37°50' W 000°20'712.7
2017-Aug-17 02:00N 37°55' W 000°16'612.8
2017-Aug-17 01:31N 38°00' W 000°12'712.8
2017-Aug-17 01:00N 38°06' W 000°07'612.7
2017-Aug-17 00:30N 38°11' W 000°03'812.5
2017-Aug-16 23:53N 38°18' E 000°02'512.5
2017-Aug-16 23:31N 38°22' E 000°06'712.6
2017-Aug-16 22:59N 38°27' E 000°10'3111.5
2017-Aug-16 20:17N 38°57' E 000°21'512.2
2017-Aug-16 19:54N 39°02' E 000°20'  
2017-Aug-10 17:54N 38°38' E 000°24'64 9.8
2017-Aug-10 11:19N 37°45' W 000°21'2 6.9
2017-Aug-10 11:00N 37°43' W 000°22'4 7.3
2017-Aug-10 10:30N 37°40' W 000°25'3 5.8
2017-Aug-10 10:00N 37°37' W 000°26'3 5.2
2017-Aug-10 09:30N 37°35' W 000°29'3 5.3
2017-Aug-10 09:00N 37°33' W 000°31'2 4.2
2017-Aug-10 08:30N 37°32' W 000°32'2 3.6
2017-Aug-10 08:00N 37°30' W 000°34'1 2.7
2017-Aug-10 07:29N 37°30' W 000°35'1 1.9
2017-Aug-10 07:00N 37°29' W 000°36'2 1.9
2017-Aug-10 05:58N 37°27' W 000°38'1 1.8
2017-Aug-10 05:30N 37°27' W 000°39'1 1.3
2017-Aug-10 04:51N 37°26' W 000°39'1 1.6
2017-Aug-10 04:03N 37°25' W 000°40'0 2.0
2017-Aug-10 03:59N 37°25' W 000°40'1 1.5
2017-Aug-10 03:30N 37°25' W 000°41'1 2.1
2017-Aug-10 03:00N 37°24' W 000°42'2 3.2
2017-Aug-10 02:30N 37°23' W 000°44'4 7.2
2017-Aug-10 02:00N 37°21' W 000°47'5 9.2
2017-Aug-10 01:30N 37°18' W 000°51'5 9.8
2017-Aug-10 01:00N 37°15' W 000°56'611.6
2017-Aug-10 00:27N 37°10' W 001°02'21312.2
2017-Aug-09 06:58N 35°59' W 005°13'614.3
2017-Aug-09 06:30N 35°59' W 005°21'714.0
2017-Aug-09 06:00N 35°57' W 005°29'714.3
2017-Aug-09 05:30N 35°55' W 005°37'  
Track history (hours):
 
Tides and Currents Weather Stations Pressure Air Temp Water Temp Dewpoint Dewpoint Depression Visibility Wind Speed Wind Dir Waves Ship Positions

Magnate

Last reported at 2017-Aug-19 01:30 UTC. Time now 2017-Aug-19 01:41 UTC.
Position N 34°45' W 007°31'.

Length 140 m; draft 7.1 m.

Type: Cargo ship. MMSI: 357055000.

Date/timePositionNaut miles runAvg speedWind from/ knotsBaromVisibWave heightAir tempDewpointWater temp
2017-Aug-19 01:30N 34°45' W 007°31'611.8
2017-Aug-19 01:00N 34°49' W 007°26'612.0
2017-Aug-19 00:30N 34°54' W 007°22'612.2
2017-Aug-19 00:00N 34°59' W 007°17'612.3
2017-Aug-18 23:30N 35°03' W 007°12'712.4
2017-Aug-18 22:56N 35°08' W 007°06'512.7
2017-Aug-18 22:30N 35°12' W 007°01'8111.2
2017-Aug-18 15:17N 35°58' W 005°39'3 9.3
2017-Aug-18 15:00N 35°58' W 005°36'9 9.2
2017-Aug-18 14:00N 36°01' W 005°25'611.8
2017-Aug-18 13:28N 36°07' W 005°23'1 0.7
2017-Aug-18 11:55N 36°08' W 005°22'0 0.0
2017-Aug-18 11:25N 36°08' W 005°22'0 0.0
2017-Aug-18 10:52N 36°08' W 005°22'218 7.7
2017-Aug-17 06:34N 37°14' W 001°03'212.4
2017-Aug-17 06:24N 37°15' W 001°01'612.4
2017-Aug-17 05:55N 37°19' W 000°55'512.4
2017-Aug-17 05:31N 37°22' W 000°50'612.3
2017-Aug-17 05:00N 37°26' W 000°44'612.1
2017-Aug-17 04:31N 37°30' W 000°39'612.1
2017-Aug-17 04:01N 37°34' W 000°33'611.9
2017-Aug-17 03:31N 37°39' W 000°29'612.1
2017-Aug-17 03:01N 37°44' W 000°25'612.6
2017-Aug-17 02:31N 37°50' W 000°20'712.7
2017-Aug-17 02:00N 37°55' W 000°16'612.8
2017-Aug-17 01:31N 38°00' W 000°12'712.8
2017-Aug-17 01:00N 38°06' W 000°07'612.7
2017-Aug-17 00:30N 38°11' W 000°03'812.5
2017-Aug-16 23:53N 38°18' E 000°02'512.5
2017-Aug-16 23:31N 38°22' E 000°06'712.6
2017-Aug-16 22:59N 38°27' E 000°10'3111.5
2017-Aug-16 20:17N 38°57' E 000°21'512.2
2017-Aug-16 19:54N 39°02' E 000°20'  
2017-Aug-10 17:54N 38°38' E 000°24'64 9.8
2017-Aug-10 11:19N 37°45' W 000°21'2 6.9
2017-Aug-10 11:00N 37°43' W 000°22'4 7.3
2017-Aug-10 10:30N 37°40' W 000°25'3 5.8
2017-Aug-10 10:00N 37°37' W 000°26'3 5.2
2017-Aug-10 09:30N 37°35' W 000°29'3 5.3
2017-Aug-10 09:00N 37°33' W 000°31'2 4.2
2017-Aug-10 08:30N 37°32' W 000°32'2 3.6
2017-Aug-10 08:00N 37°30' W 000°34'1 2.7
2017-Aug-10 07:29N 37°30' W 000°35'1 1.9
2017-Aug-10 07:00N 37°29' W 000°36'2 1.9
2017-Aug-10 05:58N 37°27' W 000°38'1 1.8
2017-Aug-10 05:30N 37°27' W 000°39'1 1.3
2017-Aug-10 04:51N 37°26' W 000°39'1 1.6
2017-Aug-10 04:03N 37°25' W 000°40'0 2.0
2017-Aug-10 03:59N 37°25' W 000°40'1 1.5
2017-Aug-10 03:30N 37°25' W 000°41'1 2.1
2017-Aug-10 03:00N 37°24' W 000°42'2 3.2
2017-Aug-10 02:30N 37°23' W 000°44'4 7.2
2017-Aug-10 02:00N 37°21' W 000°47'5 9.2
2017-Aug-10 01:30N 37°18' W 000°51'5 9.8
2017-Aug-10 01:00N 37°15' W 000°56'611.6
2017-Aug-10 00:27N 37°10' W 001°02'21312.2
2017-Aug-09 06:58N 35°59' W 005°13'614.3
2017-Aug-09 06:30N 35°59' W 005°21'714.0
2017-Aug-09 06:00N 35°57' W 005°29'714.3
2017-Aug-09 05:30N 35°55' W 005°37'  

Dump ship's entire track history